Anchorage, Alaska
Current Conditions -  °F | °C
As of 4:53 AM on Wednesday 28 Jan 2015 (Local Time) from PANC Reporting Station
Clear Clear  
Wind Chill: -20°   Ceiling: Unl
Heat Index: -14°   Visibility: 10mi
Dew Point: -20°   Wind: 6mph
Humidity: 61%   Direction: 30°NNE
Pressure: 30.09"   Gusts: NA
Location:  61.16°N, 150.01°W
Report Text: PANC 281353Z 03005KT 10SM CLR M14/M20 A3009 RMK AO2 SLP193 T11391200
Loading
Personal Weather Stations






























Interactive Weather Map New forecast layout! Learn more

10-Day Weather Forecast

Advertisements
Track Severe Weather on mobile